Time;durP1;ratioP1;P1;durP2;ratioP2;P2;SDS_P1;SDS_P2;PMS_P1;PMS_P2;Temp;Humidity;BMP_temperature;BMP_pressure;BME280_temperature;BME280_humidity;BME280_pressure;Samples;Min_cycle;Max_cycle;Signal;HPM_P1;HPM_P2
2024/04/20 00:04:55;;;;;;;4.00;3.00;;;;;;;4.69;85.80;98493.33;217777;1257;140336;-67
2024/04/20 00:09:57;;;;;;;3.00;2.80;;;;;;;4.73;85.90;98495.02;217251;1257;139693;-67
2024/04/20 00:14:59;;;;;;;7.20;3.30;;;;;;;4.77;85.89;98500.77;217213;1257;141624;-68
2024/04/20 00:20:01;;;;;;;3.80;3.50;;;;;;;4.81;86.13;98499.69;217567;1260;139964;-67
2024/04/20 00:25:03;;;;;;;3.10;2.90;;;;;;;4.83;86.47;98497.10;217433;1259;139604;-66
2024/04/20 00:30:05;;;;;;;5.00;4.50;;;;;;;4.84;86.62;98501.23;218466;1259;140945;-67
2024/04/20 00:35:06;;;;;;;4.00;3.70;;;;;;;4.85;86.58;98503.81;219992;1257;141825;-67
2024/04/20 00:40:08;;;;;;;6.00;4.50;;;;;;;4.89;86.80;98508.74;218485;1257;140534;-67
2024/04/20 00:45:09;;;;;;;4.80;3.80;;;;;;;4.93;87.03;98512.42;217686;1257;139787;-70
2024/04/20 00:50:11;;;;;;;4.80;4.40;;;;;;;4.98;86.99;98515.29;217310;1257;140752;-67
2024/04/20 00:55:13;;;;;;;4.50;4.10;;;;;;;5.01;87.04;98513.36;217343;1259;140988;-67
2024/04/20 01:00:15;;;;;;;6.10;4.50;;;;;;;5.04;87.17;98516.17;217526;1257;140414;-66
2024/04/20 01:05:18;;;;;;;4.30;3.90;;;;;;;5.07;87.46;98518.27;217024;1257;139876;-67
2024/04/20 01:10:20;;;;;;;5.30;4.90;;;;;;;5.11;87.34;98519.55;217286;1256;139722;-66
2024/04/20 01:15:22;;;;;;;5.80;5.10;;;;;;;5.12;87.64;98515.36;217437;1260;139625;-67
2024/04/20 01:20:24;;;;;;;6.50;5.10;;;;;;;5.09;87.36;98523.60;217139;1260;140542;-67
2024/04/20 01:25:26;;;;;;;5.90;5.30;;;;;;;5.10;87.60;98528.95;217363;1257;141969;-66
2024/04/20 01:30:27;;;;;;;5.30;4.80;;;;;;;5.11;87.96;98535.36;216982;1258;140363;-68
2024/04/20 01:35:29;;;;;;;26.20;24.20;;;;;;;5.12;87.53;98540.52;217381;1256;140199;-66
2024/04/20 01:40:30;;;;;;;6.30;5.70;;;;;;;5.13;87.80;98542.03;217327;1256;140495;-68
2024/04/20 01:45:31;;;;;;;11.70;9.10;;;;;;;5.11;87.76;98542.96;217307;1259;141249;-67
2024/04/20 01:50:33;;;;;;;7.80;5.00;;;;;;;5.12;87.95;98542.79;217476;1257;139791;-67
2024/04/20 01:55:34;;;;;;;5.40;4.90;;;;;;;5.13;87.87;98543.55;217610;1257;139738;-67
2024/04/20 02:00:35;;;;;;;4.40;3.90;;;;;;;5.16;88.09;98548.20;217971;1259;222078;-66
2024/04/20 02:05:36;;;;;;;5.40;4.90;;;;;;;5.17;88.11;98553.27;217430;1257;140459;-66
2024/04/20 02:17:00;;;;;;;5.50;5.00;;;;;;;5.19;88.32;98557.79;217496;1256;139893;-67
2024/04/20 02:22:01;;;;;;;5.30;4.80;;;;;;;5.20;88.49;98559.14;217780;1257;140805;-70
2024/04/20 02:27:02;;;;;;;5.90;4.30;;;;;;;5.23;88.34;98557.71;217603;1257;139856;-67
2024/04/20 02:32:05;;;;;;;5.70;5.20;;;;;;;5.21;88.25;98557.98;217524;1257;140288;-68
2024/04/20 02:37:11;;;;;;;6.70;4.70;;;;;;;5.20;88.62;98557.48;218145;1257;139921;-67
2024/04/20 02:42:12;;;;;;;7.00;4.90;;;;;;;5.20;88.36;98559.81;217242;1256;142033;-67
2024/04/20 02:47:13;;;;;;;5.10;4.70;;;;;;;5.22;88.40;98564.38;217325;1257;139884;-67
2024/04/20 02:52:15;;;;;;;6.10;4.60;;;;;;;5.22;88.63;98568.48;217341;1259;140852;-67
2024/04/20 02:57:16;;;;;;;4.60;4.30;;;;;;;5.25;88.69;98575.40;217633;1256;139720;-67
2024/04/20 03:02:18;;;;;;;5.50;4.80;;;;;;;5.24;88.33;98577.72;217153;1259;140065;-67
2024/04/20 03:07:22;;;;;;;4.50;4.10;;;;;;;5.26;88.71;98581.67;217471;1257;140841;-68
2024/04/20 03:12:23;;;;;;;7.50;5.70;;;;;;;5.26;88.47;98582.77;216896;1260;140777;-67
2024/04/20 03:17:24;;;;;;;6.90;6.20;;;;;;;5.26;88.60;98582.98;217291;1260;139723;-68
2024/04/20 03:22:26;;;;;;;6.40;5.80;;;;;;;5.28;88.68;98585.42;217418;1259;139941;-68
2024/04/20 03:27:27;;;;;;;5.00;4.20;;;;;;;5.27;88.53;98591.89;217603;1257;140337;-69
2024/04/20 03:32:28;;;;;;;6.00;4.40;;;;;;;5.26;88.64;98596.88;217774;1260;139556;-67
2024/04/20 03:37:30;;;;;;;4.90;4.40;;;;;;;5.22;88.50;98600.75;217544;1257;140745;-68
2024/04/20 03:42:32;;;;;;;6.10;5.00;;;;;;;5.21;88.90;98600.98;218006;1258;140773;-68
2024/04/20 03:47:33;;;;;;;4.50;4.10;;;;;;;5.22;89.16;98602.44;217451;1257;140402;-67
2024/04/20 03:52:35;;;;;;;5.60;5.00;;;;;;;5.20;88.71;98610.43;219183;1259;140045;-67
2024/04/20 03:57:36;;;;;;;4.60;4.20;;;;;;;5.16;88.90;98613.77;217496;1257;141107;-67
2024/04/20 04:02:38;;;;;;;8.00;4.70;;;;;;;5.18;89.33;98626.14;217673;1259;151869;-68
2024/04/20 04:07:39;;;;;;;4.50;4.10;;;;;;;5.21;89.50;98625.52;220047;1256;140290;-67
2024/04/20 04:12:41;;;;;;;5.20;4.20;;;;;;;5.21;89.34;98632.69;219109;1259;140948;-68
2024/04/20 04:17:46;;;;;;;5.80;5.20;;;;;;;5.26;89.49;98636.15;218165;1257;140981;-66
2024/04/20 04:22:49;;;;;;;5.20;4.70;;;;;;;5.29;89.59;98645.16;217540;1258;140667;-67
2024/04/20 04:27:50;;;;;;;5.40;4.70;;;;;;;5.34;89.37;98651.91;217996;1258;223906;-66
2024/04/20 04:32:52;;;;;;;6.40;5.50;;;;;;;5.40;89.41;98650.25;217574;1256;141862;-68
2024/04/20 04:37:53;;;;;;;5.50;5.00;;;;;;;5.46;89.88;98657.36;217513;1257;140146;-68
2024/04/20 04:42:55;;;;;;;8.60;5.30;;;;;;;5.47;89.58;98661.48;217489;1259;140804;-68
2024/04/20 04:47:56;;;;;;;6.80;6.00;;;;;;;5.48;89.72;98664.72;217540;1256;140175;-68
2024/04/20 04:53:00;;;;;;;6.00;5.40;;;;;;;5.52;89.52;98674.15;217869;1256;139586;-66
2024/04/20 04:58:02;;;;;;;4.30;3.90;;;;;;;5.62;89.89;98677.41;218405;1258;140712;-70
2024/04/20 05:03:04;;;;;;;8.30;6.30;;;;;;;5.74;89.74;98682.52;217682;1255;140120;-68
2024/04/20 05:08:06;;;;;;;7.40;6.70;;;;;;;5.86;89.61;98691.92;217522;1259;139898;-68
2024/04/20 05:13:07;;;;;;;7.10;5.30;;;;;;;6.06;89.93;98695.80;217358;1257;139739;-67
2024/04/20 05:18:11;;;;;;;4.90;4.50;;;;;;;6.30;89.73;98696.97;217615;1257;140740;-67
2024/04/20 05:23:13;;;;;;;4.90;4.40;;;;;;;6.54;89.68;98701.55;217479;1259;139836;-68
2024/04/20 05:28:15;;;;;;;4.40;4.00;;;;;;;6.71;89.46;98705.88;217516;1257;140987;-66
2024/04/20 05:33:17;;;;;;;7.00;6.00;;;;;;;6.74;89.12;98716.02;217805;1255;139990;-68
2024/04/20 05:38:18;;;;;;;5.90;5.30;;;;;;;6.75;88.57;98722.72;217502;1257;139863;-67
2024/04/20 05:43:20;;;;;;;6.80;6.10;;;;;;;6.78;89.00;98728.98;217609;1256;139862;-67
2024/04/20 05:48:21;;;;;;;6.80;5.90;;;;;;;6.78;88.53;98731.52;218586;1255;139980;-68
2024/04/20 05:53:23;;;;;;;5.60;5.10;;;;;;;6.79;88.56;98737.20;217515;1257;139682;-67
2024/04/20 05:58:24;;;;;;;5.90;5.30;;;;;;;6.84;88.58;98736.83;219073;1257;140362;-68
2024/04/20 06:03:25;;;;;;;6.80;5.40;;;;;;;6.89;88.20;98743.11;219333;1259;140978;-67
2024/04/20 06:08:28;;;;;;;4.80;4.40;;;;;;;7.01;88.13;98745.40;219105;1256;139848;-68
2024/04/20 06:13:30;;;;;;;5.50;5.00;;;;;;;7.16;88.66;98749.23;218522;1256;141324;-67
2024/04/20 06:18:34;;;;;;;6.10;5.50;;;;;;;7.34;88.60;98753.27;217360;1256;139689;-72
2024/04/20 06:23:36;;;;;;;7.20;5.70;;;;;;;7.43;88.06;98762.72;217966;1259;140516;-67
2024/04/20 06:28:37;;;;;;;6.60;6.00;;;;;;;7.47;88.04;98769.52;217424;1259;140073;-69
2024/04/20 06:33:39;;;;;;;7.80;7.10;;;;;;;7.53;87.49;98780.50;217482;1259;139947;-67
2024/04/20 06:38:42;;;;;;;6.20;4.70;;;;;;;7.53;87.75;98786.77;217405;1258;140714;-68
2024/04/20 06:43:44;;;;;;;7.80;7.10;;;;;;;7.48;87.33;98793.89;217601;1257;139661;-68
2024/04/20 06:48:46;;;;;;;6.80;5.20;;;;;;;7.56;87.37;98801.52;217327;1257;140074;-69
2024/04/20 06:53:48;;;;;;;7.20;5.00;;;;;;;7.57;87.35;98804.08;217540;1257;139707;-69
2024/04/20 06:58:49;;;;;;;6.60;6.00;;;;;;;7.55;87.13;98810.73;217457;1257;140499;-68
2024/04/20 07:03:51;;;;;;;6.80;5.60;;;;;;;7.51;86.82;98819.14;217455;1258;140212;-68
2024/04/20 07:08:52;;;;;;;5.00;4.50;;;;;;;7.57;87.02;98822.54;217400;1257;140824;-69
2024/04/20 07:13:55;;;;;;;7.50;6.80;;;;;;;7.83;87.50;98825.65;217515;1259;140484;-69
2024/04/20 07:18:58;;;;;;;9.10;8.20;;;;;;;7.94;86.93;98828.39;217709;1257;140088;-68
2024/04/20 07:24:01;;;;;;;7.90;7.10;;;;;;;8.14;87.07;98831.37;218570;1256;139937;-68
2024/04/20 07:29:03;;;;;;;8.70;7.00;;;;;;;8.42;86.69;98838.85;219018;1259;140429;-69
2024/04/20 07:34:05;;;;;;;8.30;7.10;;;;;;;8.54;86.23;98844.68;217492;1259;142267;-67
2024/04/20 07:39:07;;;;;;;9.40;8.00;;;;;;;8.66;86.07;98851.02;217641;1259;140433;-68
2024/04/20 07:44:08;;;;;;;7.80;7.00;;;;;;;8.75;85.38;98853.42;217297;1259;140150;-68
2024/04/20 07:49:10;;;;;;;8.10;6.60;;;;;;;9.01;85.90;98859.84;218960;1257;141899;-69
2024/04/20 07:54:11;;;;;;;8.50;7.60;;;;;;;9.23;85.46;98864.95;218222;1259;139687;-69
2024/04/20 07:59:13;;;;;;;5.40;4.90;;;;;;;9.26;84.76;98870.89;217949;1257;140475;-69
2024/04/20 08:04:15;;;;;;;9.00;8.10;;;;;;;9.17;84.16;98877.60;219586;1257;140047;-68
2024/04/20 08:09:16;;;;;;;7.50;6.90;;;;;;;9.07;83.82;98883.65;218322;1257;140767;-69
2024/04/20 08:14:18;;;;;;;9.10;8.20;;;;;;;9.01;83.50;98899.83;217377;1256;141735;-68
2024/04/20 08:19:20;;;;;;;11.60;7.50;;;;;;;8.90;83.45;98905.51;217342;1257;139696;-70
2024/04/20 08:24:22;;;;;;;9.10;7.70;;;;;;;8.87;83.36;98907.84;217796;1260;143038;-68
2024/04/20 08:29:24;;;;;;;10.40;8.20;;;;;;;8.81;83.19;98913.90;217215;1259;140601;-69
2024/04/20 08:34:25;;;;;;;10.20;7.50;;;;;;;8.84;83.39;98923.45;217465;1259;140936;-68
2024/04/20 08:39:27;;;;;;;7.90;7.20;;;;;;;8.84;83.06;98931.11;217626;1255;140633;-68
2024/04/20 08:44:29;;;;;;;9.10;7.70;;;;;;;8.92;83.22;98936.85;217543;1259;140027;-69
2024/04/20 08:49:32;;;;;;;10.90;9.80;;;;;;;8.99;83.16;98942.85;217479;1259;139536;-67
2024/04/20 08:54:35;;;;;;;9.30;8.30;;;;;;;9.07;82.91;98949.05;217598;1259;140321;-68
2024/04/20 08:59:37;;;;;;;8.10;7.30;;;;;;;9.13;82.63;98955.52;217410;1261;140485;-67
2024/04/20 09:04:39;;;;;;;9.00;8.10;;;;;;;9.21;82.58;98961.46;217400;1259;140795;-68
2024/04/20 09:09:42;;;;;;;8.40;7.40;;;;;;;9.24;82.15;98972.29;217413;1257;140270;-70
2024/04/20 09:14:43;;;;;;;7.20;6.10;;;;;;;9.32;81.93;98977.52;218061;1257;141320;-69
2024/04/20 09:19:49;;;;;;;10.20;9.10;;;;;;;9.45;81.88;98982.66;217663;1259;141027;-67
2024/04/20 09:25:04;;;;;;;10.40;8.60;;;;;;;9.59;81.38;98989.01;219605;1257;140624;-68
2024/04/20 09:30:10;;;;;;;10.50;7.40;;;;;;;9.88;81.37;98991.39;219084;1257;143505;-68
2024/04/20 09:35:13;;;;;;;7.10;6.40;;;;;;;10.26;81.26;98998.66;217838;1259;140567;-69
2024/04/20 09:40:15;;;;;;;7.10;6.00;;;;;;;10.56;80.50;99002.16;217212;1259;140167;-69
2024/04/20 09:45:20;;;;;;;8.90;7.50;;;;;;;10.80;80.43;99003.52;217715;1257;140086;-69
2024/04/20 09:50:25;;;;;;;10.10;7.90;;;;;;;11.03;79.75;99010.02;217497;1257;141749;-67
2024/04/20 09:55:32;;;;;;;9.10;6.70;;;;;;;11.11;79.14;99013.66;217832;1259;141276;-70
2024/04/20 10:00:35;;;;;;;8.80;8.00;;;;;;;11.26;78.34;99013.46;217562;1259;140421;-69
2024/04/20 10:05:39;;;;;;;5.80;5.30;;;;;;;11.63;78.23;99016.61;217498;1257;141084;-68
2024/04/20 10:10:45;;;;;;;5.90;4.60;;;;;;;12.36;78.08;99016.19;217533;1259;139767;-69
2024/04/20 10:15:47;;;;;;;3.40;3.10;;;;;;;12.68;77.02;99013.36;217340;1259;140878;-68
2024/04/20 10:20:57;;;;;;;5.10;4.60;;;;;;;12.74;75.14;99022.14;217575;1257;209611;-68
2024/04/20 10:25:59;;;;;;;6.40;5.70;;;;;;;12.73;73.75;99021.88;217899;1257;140163;-69
2024/04/20 10:31:04;;;;;;;4.20;3.90;;;;;;;12.76;73.51;99029.10;217388;1257;140918;-70
2024/04/20 10:36:08;;;;;;;4.70;3.00;;;;;;;12.47;72.68;99039.89;217377;1259;140426;-69
2024/04/20 10:41:15;;;;;;;3.20;2.90;;;;;;;11.88;72.22;99052.65;218362;1258;139706;-69
2024/04/20 10:46:20;;;;;;;2.10;1.90;;;;;;;11.14;72.04;99052.53;217403;1260;141033;-69
2024/04/20 10:51:26;;;;;;;1.90;1.80;;;;;;;10.61;72.48;99055.46;217593;1260;139778;-69
2024/04/20 10:56:29;;;;;;;4.10;2.50;;;;;;;10.41;73.62;99063.98;217313;1259;140970;-69
2024/04/20 11:01:31;;;;;;;4.60;3.10;;;;;;;10.46;74.22;99068.63;217608;1257;141090;-67
2024/04/20 11:06:33;;;;;;;2.30;2.20;;;;;;;10.65;74.42;99069.95;218159;1258;139822;-70
2024/04/20 11:11:35;;;;;;;2.40;2.20;;;;;;;10.81;74.14;99072.92;218275;1259;140680;-69
2024/04/20 11:16:37;;;;;;;1.80;1.70;;;;;;;10.99;74.74;99083.56;217322;1256;141038;-70
2024/04/20 11:21:39;;;;;;;1.70;1.60;;;;;;;11.00;74.14;99094.86;217371;1260;141174;-69
2024/04/20 11:26:43;;;;;;;3.90;3.40;;;;;;;10.73;74.03;99109.80;217638;1260;139799;-68
2024/04/20 11:31:45;;;;;;;5.50;4.30;;;;;;;10.18;73.70;99130.73;218860;1259;140033;-68
2024/04/20 11:36:46;;;;;;;5.10;4.60;;;;;;;9.60;74.12;99142.30;217019;1259;525508;-69
2024/04/20 11:41:49;;;;;;;5.70;4.70;;;;;;;9.24;75.01;99148.45;217379;1259;139965;-68
2024/04/20 11:46:52;;;;;;;7.00;5.60;;;;;;;9.03;75.85;99161.48;217266;1260;140548;-68
2024/04/20 11:57:22;;;;;;;7.30;5.50;;;;;;;8.76;76.62;99174.51;218008;1259;140225;-68
2024/04/20 12:02:24;;;;;;;7.10;6.00;;;;;;;8.74;76.91;99180.56;217734;1259;140584;-68
2024/04/20 12:07:27;;;;;;;5.20;4.50;;;;;;;8.65;77.41;99186.81;217431;1260;152693;-68
2024/04/20 12:12:29;;;;;;;5.00;4.30;;;;;;;8.65;77.90;99187.67;218058;1259;139731;-68
2024/04/20 12:17:32;;;;;;;6.80;5.40;;;;;;;8.72;78.59;99197.16;217988;1259;140037;-68
2024/04/20 12:22:35;;;;;;;6.60;5.60;;;;;;;8.72;78.63;99197.11;217671;1260;140369;-69
2024/04/20 12:27:36;;;;;;;5.50;4.80;;;;;;;8.73;78.53;99207.11;217366;1258;139802;-68
2024/04/20 12:32:38;;;;;;;9.60;5.20;;;;;;;8.76;78.68;99210.27;217695;1260;140713;-67
2024/04/20 12:37:40;;;;;;;7.40;5.40;;;;;;;8.79;78.81;99214.11;217641;1261;139980;-69
2024/04/20 12:42:44;;;;;;;5.90;4.70;;;;;;;8.86;78.88;99217.69;217500;1260;142042;-67
2024/04/20 12:47:48;;;;;;;5.50;5.00;;;;;;;8.91;78.60;99227.17;217652;1258;140167;-68
2024/04/20 12:52:50;;;;;;;5.90;4.50;;;;;;;8.88;78.28;99237.02;217537;1257;139727;-68
2024/04/20 12:57:52;;;;;;;5.70;5.30;;;;;;;8.87;78.36;99245.77;217538;1258;140320;-68
2024/04/20 13:02:54;;;;;;;5.00;4.50;;;;;;;8.91;78.01;99251.80;219522;1256;139994;-69
2024/04/20 13:07:55;;;;;;;5.70;4.30;;;;;;;8.91;78.01;99260.04;218871;1261;140635;-69
2024/04/20 13:12:56;;;;;;;8.60;5.70;;;;;;;8.91;77.79;99266.58;218326;1257;140792;-68
2024/04/20 13:17:58;;;;;;;5.40;3.70;;;;;;;8.90;77.56;99273.62;217320;1257;140169;-71
2024/04/20 13:22:59;;;;;;;4.10;3.30;;;;;;;8.79;77.00;99277.20;218367;1261;141133;-70
2024/04/20 13:28:03;;;;;;;5.80;4.60;;;;;;;8.67;76.85;99290.37;220199;1256;140833;-71
2024/04/20 13:33:05;;;;;;;4.20;3.50;;;;;;;8.61;76.84;99299.06;218445;1256;139458;-68
2024/04/20 13:38:06;;;;;;;4.30;3.90;;;;;;;8.50;77.08;99310.02;220076;1257;140503;-69
2024/04/20 13:43:08;;;;;;;4.00;3.30;;;;;;;8.31;76.78;99319.14;217356;1260;139499;-69
2024/04/20 13:48:19;;;;;;;3.60;3.40;;;;;;;8.12;76.65;99333.27;218643;1261;139490;-71
2024/04/20 13:53:30;;;;;;;5.40;5.00;;;;;;;7.90;76.51;99340.21;217319;1257;140333;-69
2024/04/20 13:58:33;;;;;;;3.20;2.90;;;;;;;7.76;76.67;99350.36;217659;1257;140922;-69
2024/04/20 14:03:35;;;;;;;4.60;3.40;;;;;;;7.63;76.64;99356.48;217445;1263;143955;-70
2024/04/20 14:08:38;;;;;;;3.80;2.90;;;;;;;7.52;77.01;99359.92;217661;1257;140426;-72
2024/04/20 14:13:39;;;;;;;3.60;3.40;;;;;;;7.33;76.58;99367.91;217402;1261;139819;-71
2024/04/20 14:18:41;;;;;;;3.90;3.40;;;;;;;7.11;76.85;99377.41;217492;1260;139672;-69
2024/04/20 14:23:44;;;;;;;4.40;4.00;;;;;;;7.00;77.34;99390.92;217685;1260;140200;-71
2024/04/20 14:28:46;;;;;;;3.90;3.20;;;;;;;6.92;77.30;99401.35;217513;1260;140991;-70
2024/04/20 14:33:47;;;;;;;6.90;3.40;;;;;;;6.90;77.58;99407.80;217217;1260;140379;-73
2024/04/20 14:38:48;;;;;;;3.10;2.70;;;;;;;6.81;77.92;99417.10;218989;1257;140144;-71
2024/04/20 14:43:55;;;;;;;4.50;4.20;;;;;;;6.70;77.77;99426.73;217559;1257;140815;-72
2024/04/20 14:48:56;;;;;;;3.50;3.00;;;;;;;6.58;77.80;99440.29;217429;1260;139699;-70
2024/04/20 14:54:07;;;;;;;3.90;3.20;;;;;;;6.43;78.29;99448.21;218433;1257;140077;-70
2024/04/20 14:59:16;;;;;;;3.30;3.00;;;;;;;6.25;78.14;99452.58;218644;1257;140484;-70
2024/04/20 15:04:19;;;;;;;4.80;4.40;;;;;;;6.07;78.14;99458.64;217486;1260;140786;-70
2024/04/20 15:09:20;;;;;;;3.90;3.20;;;;;;;6.02;79.21;99460.21;218441;1257;141043;-70
2024/04/20 15:14:21;;;;;;;3.70;3.20;;;;;;;5.98;78.74;99469.95;217719;1257;140789;-73
2024/04/20 15:19:23;;;;;;;3.70;2.60;;;;;;;5.88;79.37;99479.10;217652;1260;139577;-69
2024/04/20 15:24:25;;;;;;;4.00;3.60;;;;;;;5.72;78.91;99490.42;217394;1257;140861;-68
2024/04/20 15:29:27;;;;;;;3.00;2.70;;;;;;;5.54;79.22;99498.22;217706;1257;139289;-70
2024/04/20 15:34:29;;;;;;;5.90;3.70;;;;;;;5.41;79.46;99504.52;217385;1258;139247;-69
2024/04/20 15:39:32;;;;;;;3.00;2.70;;;;;;;5.33;79.41;99514.36;217435;1257;142013;-69
2024/04/20 15:44:34;;;;;;;2.70;2.50;;;;;;;5.23;79.66;99531.33;217366;1260;140674;-70
2024/04/20 15:49:38;;;;;;;3.80;2.90;;;;;;;5.10;79.87;99537.00;217725;1257;141291;-71
2024/04/20 15:54:40;;;;;;;3.70;3.30;;;;;;;4.94;79.79;99537.77;216993;1257;142064;-72
2024/04/20 15:59:45;;;;;;;4.40;4.00;;;;;;;4.79;79.80;99542.02;218726;1257;139749;-68
2024/04/20 16:04:46;;;;;;;5.20;3.50;;;;;;;4.68;79.94;99545.17;217121;1260;139527;-68
2024/04/20 16:09:52;;;;;;;2.80;2.60;;;;;;;4.60;80.32;99556.81;217115;1257;140803;-68
2024/04/20 16:14:53;;;;;;;3.10;2.50;;;;;;;4.55;80.34;99560.94;217129;1260;140104;-69
2024/04/20 16:19:55;;;;;;;6.30;3.70;;;;;;;4.46;80.60;99565.94;217187;1260;140843;-68
2024/04/20 16:24:57;;;;;;;6.50;3.70;;;;;;;4.41;80.83;99578.79;217216;1256;139970;-69
2024/04/20 16:29:58;;;;;;;5.10;4.00;;;;;;;4.33;80.93;99591.83;217164;1258;141499;-68
2024/04/20 16:35:00;;;;;;;5.60;5.10;;;;;;;4.25;81.13;99606.50;217171;1257;139725;-69
2024/04/20 16:40:01;;;;;;;3.60;3.30;;;;;;;4.12;81.20;99617.69;217103;1260;140387;-68
2024/04/20 16:45:03;;;;;;;5.50;4.00;;;;;;;4.00;81.39;99624.52;217345;1260;139746;-68
2024/04/20 16:50:05;;;;;;;3.00;2.80;;;;;;;3.93;81.50;99630.02;217247;1257;139969;-68
2024/04/20 16:55:07;;;;;;;3.90;3.40;;;;;;;3.90;81.75;99639.33;217685;1257;140899;-69
2024/04/20 17:00:09;;;;;;;3.00;2.80;;;;;;;3.87;81.87;99650.22;218350;1257;140845;-66
2024/04/20 17:05:15;;;;;;;5.40;3.60;;;;;;;3.86;82.00;99654.92;217142;1260;140819;-71
2024/04/20 17:10:16;;;;;;;5.50;3.30;;;;;;;3.87;82.25;99663.96;217340;1259;139610;-68
2024/04/20 17:15:17;;;;;;;4.30;3.60;;;;;;;3.82;82.21;99676.71;217410;1257;140837;-69
2024/04/20 17:20:19;;;;;;;4.10;3.40;;;;;;;3.76;82.52;99678.73;218178;1257;139681;-68
2024/04/20 17:25:20;;;;;;;4.00;3.10;;;;;;;3.66;82.47;99692.38;217555;1260;140728;-70
2024/04/20 17:30:33;;;;;;;7.70;3.30;;;;;;;3.52;82.48;99694.89;216966;1257;139658;-68
2024/04/20 17:35:34;;;;;;;9.40;4.10;;;;;;;3.36;82.72;99708.25;217233;1257;139527;-68
2024/04/20 17:40:36;;;;;;;6.30;3.70;;;;;;;3.26;82.90;99720.20;217275;1256;140173;-67
2024/04/20 17:45:37;;;;;;;4.90;4.00;;;;;;;3.17;83.07;99729.29;217210;1260;139369;-67
2024/04/20 17:50:38;;;;;;;4.40;4.00;;;;;;;3.10;83.39;99733.31;217363;1257;139490;-66
2024/04/20 17:55:40;;;;;;;7.30;4.40;;;;;;;3.02;83.69;99739.13;216985;1257;140601;-66
2024/04/20 18:00:42;;;;;;;6.00;4.60;;;;;;;2.97;83.87;99747.00;217346;1258;140996;-67
2024/04/20 18:05:44;;;;;;;6.10;4.70;;;;;;;2.96;83.97;99751.68;217077;1260;139912;-65
2024/04/20 18:10:49;;;;;;;6.20;4.90;;;;;;;2.93;84.21;99761.09;217120;1260;140373;-66
2024/04/20 18:15:51;;;;;;;5.40;3.80;;;;;;;2.84;84.27;99766.23;217274;1257;141182;-66
2024/04/20 18:20:53;;;;;;;5.10;4.60;;;;;;;2.77;84.07;99777.33;218454;1257;140741;-65
2024/04/20 18:25:55;;;;;;;5.70;4.10;;;;;;;2.71;84.25;99787.11;217265;1258;140095;-66
2024/04/20 18:30:57;;;;;;;6.80;4.20;;;;;;;2.67;84.41;99787.62;217994;1256;140471;-66
2024/04/20 18:36:00;;;;;;;11.00;4.50;;;;;;;2.61;84.46;99793.08;217657;1259;142122;-67
2024/04/20 18:41:04;;;;;;;6.10;3.50;;;;;;;2.55;84.54;99804.72;217521;1257;140078;-69
2024/04/20 18:46:07;;;;;;;4.60;3.00;;;;;;;2.48;84.57;99810.94;217769;1257;139439;-66
2024/04/20 18:51:10;;;;;;;5.90;4.20;;;;;;;2.44;84.43;99821.29;217587;1256;139374;-68
2024/04/20 18:56:16;;;;;;;4.80;4.30;;;;;;;2.37;84.27;99825.38;217521;1257;140493;-67
2024/04/20 19:01:23;;;;;;;7.10;3.40;;;;;;;2.29;84.23;99831.88;217452;1259;139991;-67
2024/04/20 19:06:24;;;;;;;8.00;4.00;;;;;;;2.21;84.09;99836.52;219140;1259;141857;-67
2024/04/20 19:11:28;;;;;;;3.50;3.00;;;;;;;2.16;84.26;99849.70;217439;1257;140937;-66
2024/04/20 19:16:31;;;;;;;4.60;4.00;;;;;;;2.13;84.32;99852.81;217580;1257;141458;-66
2024/04/20 19:21:32;;;;;;;3.90;3.60;;;;;;;2.10;84.69;99857.64;217722;1256;140502;-66
2024/04/20 19:26:35;;;;;;;4.60;3.50;;;;;;;2.07;84.48;99865.33;217704;1257;140033;-67
2024/04/20 19:31:36;;;;;;;4.30;3.90;;;;;;;2.02;84.42;99865.91;217678;1259;140528;-65
2024/04/20 19:36:38;;;;;;;4.20;3.30;;;;;;;1.99;84.77;99866.30;217407;1257;140054;-67
2024/04/20 19:41:41;;;;;;;8.70;4.80;;;;;;;1.93;84.53;99869.72;217312;1257;140605;-65
2024/04/20 19:46:44;;;;;;;6.10;3.60;;;;;;;1.92;84.93;99873.40;217683;1257;139738;-67
2024/04/20 19:51:45;;;;;;;4.20;3.70;;;;;;;1.89;84.85;99870.40;218267;1257;139901;-66
2024/04/20 19:56:48;;;;;;;6.00;5.40;;;;;;;1.88;85.02;99875.27;217437;1257;142219;-67
2024/04/20 20:01:50;;;;;;;6.70;4.40;;;;;;;1.88;85.21;99880.13;217541;1257;139891;-66
2024/04/20 20:06:51;;;;;;;4.50;3.60;;;;;;;1.88;84.67;99883.48;217475;1257;139805;-67
2024/04/20 20:11:53;;;;;;;8.40;4.20;;;;;;;1.88;84.86;99893.11;217113;1257;140077;-65
2024/04/20 20:16:55;;;;;;;10.20;4.40;;;;;;;1.86;84.86;99900.95;217608;1257;139848;-66
2024/04/20 20:21:56;;;;;;;8.50;5.40;;;;;;;1.84;84.74;99902.90;218098;1257;140845;-65
2024/04/20 20:26:57;;;;;;;5.70;4.30;;;;;;;1.82;84.94;99910.66;217591;1257;140690;-66
2024/04/20 20:32:00;;;;;;;6.90;4.60;;;;;;;1.79;85.12;99914.32;217498;1257;139788;-66
2024/04/20 20:37:02;;;;;;;6.50;4.50;;;;;;;1.77;84.94;99918.11;217611;1256;140346;-65
2024/04/20 20:42:03;;;;;;;9.30;5.10;;;;;;;1.76;84.89;99921.20;217518;1257;140095;-65
2024/04/20 20:47:05;;;;;;;7.50;4.90;;;;;;;1.74;85.43;99924.04;217989;1259;140563;-65
2024/04/20 20:52:06;;;;;;;6.70;4.90;;;;;;;1.74;85.64;99928.11;217469;1257;139849;-66
2024/04/20 20:57:08;;;;;;;5.50;4.40;;;;;;;1.74;85.46;99931.10;217779;1257;139916;-65
2024/04/20 21:02:10;;;;;;;5.60;5.00;;;;;;;1.75;85.77;99936.35;220349;1256;140327;-69
2024/04/20 21:07:11;;;;;;;5.70;4.70;;;;;;;1.78;85.83;99942.84;219001;1256;140048;-69
2024/04/20 21:12:17;;;;;;;5.60;5.00;;;;;;;1.81;85.87;99947.20;219203;1257;141390;-68
2024/04/20 21:17:18;;;;;;;6.70;4.50;;;;;;;1.85;85.91;99950.08;217545;1255;140572;-67
2024/04/20 21:22:20;;;;;;;10.40;4.90;;;;;;;1.86;85.92;99956.44;217557;1257;140351;-66
2024/04/20 21:27:22;;;;;;;9.20;5.50;;;;;;;1.84;85.70;99962.96;217860;1256;141894;-65
2024/04/20 21:32:24;;;;;;;9.00;5.70;;;;;;;1.84;86.17;99968.41;217801;1258;140071;-68
2024/04/20 21:37:26;;;;;;;7.20;4.50;;;;;;;1.82;86.01;99964.96;217983;1256;139745;-65
2024/04/20 21:42:27;;;;;;;6.00;4.40;;;;;;;1.83;86.25;99964.92;217503;1258;140766;-65
2024/04/20 21:47:29;;;;;;;7.80;4.90;;;;;;;1.80;86.18;99964.15;217550;1257;140621;-64
2024/04/20 21:52:30;;;;;;;4.60;4.00;;;;;;;1.78;86.22;99968.92;217612;1256;139781;-65
2024/04/20 21:57:32;;;;;;;7.80;4.80;;;;;;;1.76;86.17;99970.73;217412;1259;140573;-67
2024/04/20 22:02:34;;;;;;;10.00;5.40;;;;;;;1.74;85.78;99972.59;217410;1257;139539;-66
2024/04/20 22:07:36;;;;;;;8.10;5.00;;;;;;;1.73;86.17;99970.07;217479;1257;140802;-66
2024/04/20 22:12:38;;;;;;;7.10;4.70;;;;;;;1.74;86.01;99968.67;217490;1257;140787;-65
2024/04/20 22:17:40;;;;;;;6.70;4.50;;;;;;;1.75;86.05;99973.73;218053;1259;139458;-66
2024/04/20 22:22:42;;;;;;;5.90;4.00;;;;;;;1.74;85.83;99969.73;217512;1257;140630;-66
2024/04/20 22:27:44;;;;;;;7.10;4.50;;;;;;;1.75;85.53;99970.55;217370;1258;141215;-66
2024/04/20 22:32:46;;;;;;;4.70;3.40;;;;;;;1.78;85.72;99972.14;217654;1255;140569;-64
2024/04/20 22:37:53;;;;;;;4.60;3.60;;;;;;;1.79;85.15;99969.16;217701;1257;140286;-68
2024/04/20 22:42:55;;;;;;;6.90;4.00;;;;;;;1.80;85.09;99961.73;217616;1256;141608;-64
2024/04/20 22:47:57;;;;;;;7.90;3.90;;;;;;;1.81;85.06;99957.52;217947;1257;140601;-65
2024/04/20 22:52:58;;;;;;;6.40;3.70;;;;;;;1.82;84.65;99955.37;218156;1259;139393;-65
2024/04/20 22:58:01;;;;;;;5.10;3.90;;;;;;;1.83;84.54;99957.73;217680;1256;139471;-66
2024/04/20 23:03:02;;;;;;;5.50;3.50;;;;;;;1.84;84.51;99961.73;218188;1257;139924;-65
2024/04/20 23:08:04;;;;;;;8.30;4.00;;;;;;;1.87;84.34;99964.78;218656;1256;140941;-66
2024/04/20 23:13:06;;;;;;;4.30;3.30;;;;;;;1.89;84.18;99968.88;218118;1259;140629;-66
2024/04/20 23:18:07;;;;;;;5.20;3.50;;;;;;;1.91;83.88;99967.45;219048;1258;140242;-69
2024/04/20 23:23:10;;;;;;;5.60;3.90;;;;;;;1.93;84.03;99966.83;217507;1259;139661;-66
2024/04/20 23:28:12;;;;;;;6.80;3.30;;;;;;;1.96;83.88;99966.05;217275;1259;140409;-67
2024/04/20 23:33:14;;;;;;;4.20;3.00;;;;;;;1.98;83.39;99967.39;218449;1256;140770;-65
2024/04/20 23:38:28;;;;;;;5.50;3.60;;;;;;;1.99;83.20;99969.16;217732;1259;383642;-66